CheckWX is a tool to help pilots better visualize weather data.  It is not intended as a substitute for an official pre-flight weather briefing.

23:21:42 UTC

LLHZ TAF
Herzliya Airport
Herzliya, Israel
TAF LLHZ 052312Z 0600/0624 19005KT 9999 SCT017 BKN025 BECMG 0606/0608 26008KT SCT025 BECMG 0617/0619 VRB04KT SCT017 PROB40 0620/0624 BKN015 TX29/0611Z TN25/0603Z

Jul-6@
00:00 UTC

Jul-6 @ 00:00 UTC

Jul-6@
06:00 UTC

Jul-6 @ 06:00 UTC

TAF LLHZ 052312Z 0600/0624 19005KT 9999 SCT017 BKN025

Expired

Wind
  • 190° at 5 KTS
Cloud Levels
  • Scattered at 1,700' AGL
  • Broken at 2,500' AGL

Jul-6@
06:00 UTC

Jul-6 @ 06:00 UTC

Jul-6@
17:00 UTC

Jul-6 @ 17:00 UTC

BECMG 0606/0608 26008KT SCT025

Expired

Wind
  • 260° at 8 KTS
Cloud Levels
  • Scattered at 2,500' AGL

Jul-6@
17:00 UTC

Jul-6 @ 17:00 UTC

Jul-7@
00:00 UTC

Jul-7 @ 00:00 UTC

BECMG 0617/0619 VRB04KT SCT017

Becoming

Becoming Conditions expected by Mon, Jul 6, 2020 @ 19:00 UTC

Wind
  • Variable at 4 KTS
Cloud Levels
  • Scattered at 1,700' AGL

Jul-6@
20:00 UTC

Jul-6 @ 20:00 UTC

Jul-7@
00:00 UTC

Jul-7 @ 00:00 UTC

PROB40 0620/0624 BKN015 TX29/0611Z TN25/0603Z

Probable - 40% Likelihood

Probable - 40% Likelihood during this time.

Cloud Levels
  • Broken at 1,500' AGL